sensor_id;sensor_type;location;lat;lon;timestamp;temperature;humidity
10433;DHT22;5263;48.680;9.004;2023-03-01T00:01:16;-2.70;99.90
10433;DHT22;5263;48.680;9.004;2023-03-01T00:03:42;-3.00;99.90
10433;DHT22;5263;48.680;9.004;2023-03-01T00:06:08;-2.80;99.90
10433;DHT22;5263;48.680;9.004;2023-03-01T00:08:35;-2.80;99.90
10433;DHT22;5263;48.680;9.004;2023-03-01T00:11:06;-2.80;99.90
10433;DHT22;5263;48.680;9.004;2023-03-01T00:13:32;-2.90;99.90
10433;DHT22;5263;48.680;9.004;2023-03-01T00:15:58;-3.10;99.90
10433;DHT22;5263;48.680;9.004;2023-03-01T00:18:24;-3.10;99.90
10433;DHT22;5263;48.680;9.004;2023-03-01T00:20:54;-3.10;99.90
10433;DHT22;5263;48.680;9.004;2023-03-01T00:23:20;-3.00;99.90
10433;DHT22;5263;48.680;9.004;2023-03-01T00:25:47;-2.90;99.90
10433;DHT22;5263;48.680;9.004;2023-03-01T00:28:13;-2.90;99.90
10433;DHT22;5263;48.680;9.004;2023-03-01T00:30:38;-2.80;99.90
10433;DHT22;5263;48.680;9.004;2023-03-01T00:33:04;-2.80;99.90
10433;DHT22;5263;48.680;9.004;2023-03-01T00:35:29;-2.80;99.90
10433;DHT22;5263;48.680;9.004;2023-03-01T00:37:56;-2.70;99.90
10433;DHT22;5263;48.680;9.004;2023-03-01T00:40:27;-2.80;99.90
10433;DHT22;5263;48.680;9.004;2023-03-01T00:42:53;-2.80;99.90
10433;DHT22;5263;48.680;9.004;2023-03-01T00:45:18;-2.90;99.90
10433;DHT22;5263;48.680;9.004;2023-03-01T00:47:44;-2.90;99.90
10433;DHT22;5263;48.680;9.004;2023-03-01T00:50:10;-3.10;99.90
10433;DHT22;5263;48.680;9.004;2023-03-01T00:52:36;-3.00;99.90
10433;DHT22;5263;48.680;9.004;2023-03-01T00:55:03;-3.00;99.90
10433;DHT22;5263;48.680;9.004;2023-03-01T00:57:29;-3.00;99.90
10433;DHT22;5263;48.680;9.004;2023-03-01T00:59:55;-3.20;99.90
10433;DHT22;5263;48.680;9.004;2023-03-01T01:02:21;-3.20;99.90
10433;DHT22;5263;48.680;9.004;2023-03-01T01:04:47;-3.30;99.90
10433;DHT22;5263;48.680;9.004;2023-03-01T01:07:13;-3.20;99.90
10433;DHT22;5263;48.680;9.004;2023-03-01T01:09:40;-3.30;99.90
10433;DHT22;5263;48.680;9.004;2023-03-01T01:12:05;-3.30;99.90
10433;DHT22;5263;48.680;9.004;2023-03-01T01:14:31;-3.40;99.90
10433;DHT22;5263;48.680;9.004;2023-03-01T01:16:57;-3.30;99.90
10433;DHT22;5263;48.680;9.004;2023-03-01T01:19:24;-3.30;99.90
10433;DHT22;5263;48.680;9.004;2023-03-01T01:21:49;-3.30;99.90
10433;DHT22;5263;48.680;9.004;2023-03-01T01:24:16;-3.30;99.90
10433;DHT22;5263;48.680;9.004;2023-03-01T01:26:42;-3.20;99.90
10433;DHT22;5263;48.680;9.004;2023-03-01T01:29:08;-3.40;99.90
10433;DHT22;5263;48.680;9.004;2023-03-01T01:31:36;-3.70;99.90
10433;DHT22;5263;48.680;9.004;2023-03-01T01:34:05;-3.60;99.90
10433;DHT22;5263;48.680;9.004;2023-03-01T01:36:33;-3.50;99.90
10433;DHT22;5263;48.680;9.004;2023-03-01T01:38:59;-3.80;99.90
10433;DHT22;5263;48.680;9.004;2023-03-01T01:41:26;-3.80;99.90
10433;DHT22;5263;48.680;9.004;2023-03-01T01:44:19;-3.80;99.90
10433;DHT22;5263;48.680;9.004;2023-03-01T01:46:52;-3.80;99.90
10433;DHT22;5263;48.680;9.004;2023-03-01T01:49:27;-4.00;99.90
10433;DHT22;5263;48.680;9.004;2023-03-01T01:52:00;-3.80;99.90
10433;DHT22;5263;48.680;9.004;2023-03-01T01:54:44;-4.10;99.90
10433;DHT22;5263;48.680;9.004;2023-03-01T01:57:15;-4.10;99.90
10433;DHT22;5263;48.680;9.004;2023-03-01T01:59:43;-3.90;99.90
10433;DHT22;5263;48.680;9.004;2023-03-01T02:02:12;-4.10;99.90
10433;DHT22;5263;48.680;9.004;2023-03-01T02:04:38;-4.30;99.90
10433;DHT22;5263;48.680;9.004;2023-03-01T02:07:17;-4.30;99.90
10433;DHT22;5263;48.680;9.004;2023-03-01T02:09:48;-4.20;99.90
10433;DHT22;5263;48.680;9.004;2023-03-01T02:12:17;-4.20;99.90
10433;DHT22;5263;48.680;9.004;2023-03-01T02:14:43;-4.20;99.90
10433;DHT22;5263;48.680;9.004;2023-03-01T02:17:10;-4.30;99.90
10433;DHT22;5263;48.680;9.004;2023-03-01T02:19:59;-4.00;99.90
10433;DHT22;5263;48.680;9.004;2023-03-01T02:22:31;-3.90;99.90
10433;DHT22;5263;48.680;9.004;2023-03-01T02:25:07;-3.80;99.90
10433;DHT22;5263;48.680;9.004;2023-03-01T02:30:46;-3.60;99.90
10433;DHT22;5263;48.680;9.004;2023-03-01T02:33:33;-3.70;99.90
10433;DHT22;5263;48.680;9.004;2023-03-01T02:36:03;-3.40;99.90
10433;DHT22;5263;48.680;9.004;2023-03-01T02:38:31;-3.00;99.90
10433;DHT22;5263;48.680;9.004;2023-03-01T02:40:57;-3.20;99.90
10433;DHT22;5263;48.680;9.004;2023-03-01T02:43:27;-3.30;99.90
10433;DHT22;5263;48.680;9.004;2023-03-01T02:45:58;-3.30;99.90
10433;DHT22;5263;48.680;9.004;2023-03-01T02:48:23;-3.10;99.90
10433;DHT22;5263;48.680;9.004;2023-03-01T02:51:03;-3.00;99.90
10433;DHT22;5263;48.680;9.004;2023-03-01T02:56:05;-2.60;99.90
10433;DHT22;5263;48.680;9.004;2023-03-01T02:58:31;-2.40;99.90
10433;DHT22;5263;48.680;9.004;2023-03-01T03:00:56;-2.40;99.90
10433;DHT22;5263;48.680;9.004;2023-03-01T03:03:22;-2.60;99.90
10433;DHT22;5263;48.680;9.004;2023-03-01T03:05:48;-2.70;99.90
10433;DHT22;5263;48.680;9.004;2023-03-01T03:08:14;-2.60;99.90
10433;DHT22;5263;48.680;9.004;2023-03-01T03:10:42;-2.70;99.90
10433;DHT22;5263;48.680;9.004;2023-03-01T03:13:14;-2.70;99.90
10433;DHT22;5263;48.680;9.004;2023-03-01T03:15:41;-2.70;99.90
10433;DHT22;5263;48.680;9.004;2023-03-01T03:18:15;-2.40;99.90
10433;DHT22;5263;48.680;9.004;2023-03-01T03:20:42;-2.20;99.90
10433;DHT22;5263;48.680;9.004;2023-03-01T03:23:08;-2.10;99.90
10433;DHT22;5263;48.680;9.004;2023-03-01T03:25:34;-2.00;99.90
10433;DHT22;5263;48.680;9.004;2023-03-01T03:28:04;-2.20;99.90
10433;DHT22;5263;48.680;9.004;2023-03-01T03:30:36;-2.20;99.90
10433;DHT22;5263;48.680;9.004;2023-03-01T03:33:02;-2.10;99.90
10433;DHT22;5263;48.680;9.004;2023-03-01T03:35:33;-2.30;99.90
10433;DHT22;5263;48.680;9.004;2023-03-01T03:38:01;-2.30;99.90
10433;DHT22;5263;48.680;9.004;2023-03-01T03:40:36;-2.30;99.90
10433;DHT22;5263;48.680;9.004;2023-03-01T03:43:03;-2.30;99.90
10433;DHT22;5263;48.680;9.004;2023-03-01T03:45:29;-2.10;99.90
10433;DHT22;5263;48.680;9.004;2023-03-01T03:47:54;-1.90;99.90
10433;DHT22;5263;48.680;9.004;2023-03-01T03:50:20;-1.70;99.90
10433;DHT22;5263;48.680;9.004;2023-03-01T03:52:45;-1.50;99.90
10433;DHT22;5263;48.680;9.004;2023-03-01T03:55:12;-1.50;99.90
10433;DHT22;5263;48.680;9.004;2023-03-01T03:57:39;-1.50;99.90
10433;DHT22;5263;48.680;9.004;2023-03-01T04:00:06;-1.40;99.90
10433;DHT22;5263;48.680;9.004;2023-03-01T04:02:41;-1.50;99.90
10433;DHT22;5263;48.680;9.004;2023-03-01T04:05:07;-1.60;99.90
10433;DHT22;5263;48.680;9.004;2023-03-01T04:07:34;-1.50;99.90
10433;DHT22;5263;48.680;9.004;2023-03-01T04:10:01;-1.50;99.90
10433;DHT22;5263;48.680;9.004;2023-03-01T04:12:26;-1.60;99.90
10433;DHT22;5263;48.680;9.004;2023-03-01T04:14:52;-1.40;99.90
10433;DHT22;5263;48.680;9.004;2023-03-01T04:17:18;-1.20;99.90
10433;DHT22;5263;48.680;9.004;2023-03-01T04:19:44;-1.30;99.90
10433;DHT22;5263;48.680;9.004;2023-03-01T04:22:14;-1.20;99.90
10433;DHT22;5263;48.680;9.004;2023-03-01T04:24:44;-1.10;99.90
10433;DHT22;5263;48.680;9.004;2023-03-01T04:27:11;-1.20;99.90
10433;DHT22;5263;48.680;9.004;2023-03-01T04:29:36;-1.40;99.90
10433;DHT22;5263;48.680;9.004;2023-03-01T04:32:02;-1.50;99.90
10433;DHT22;5263;48.680;9.004;2023-03-01T04:34:29;-1.50;99.90
10433;DHT22;5263;48.680;9.004;2023-03-01T04:36:55;-1.50;99.90
10433;DHT22;5263;48.680;9.004;2023-03-01T04:39:20;-1.50;99.90
10433;DHT22;5263;48.680;9.004;2023-03-01T04:41:46;-1.60;99.90
10433;DHT22;5263;48.680;9.004;2023-03-01T04:44:12;-1.40;99.90
10433;DHT22;5263;48.680;9.004;2023-03-01T04:46:38;-1.20;99.90
10433;DHT22;5263;48.680;9.004;2023-03-01T04:49:04;-1.20;99.90
10433;DHT22;5263;48.680;9.004;2023-03-01T04:51:30;-1.20;99.90
10433;DHT22;5263;48.680;9.004;2023-03-01T04:53:58;-1.30;99.90
10433;DHT22;5263;48.680;9.004;2023-03-01T04:56:23;-1.20;99.90
10433;DHT22;5263;48.680;9.004;2023-03-01T04:58:49;-1.40;99.90
10433;DHT22;5263;48.680;9.004;2023-03-01T05:01:18;-1.30;99.90
10433;DHT22;5263;48.680;9.004;2023-03-01T05:03:49;-1.30;99.90
10433;DHT22;5263;48.680;9.004;2023-03-01T05:06:16;-1.30;99.90
10433;DHT22;5263;48.680;9.004;2023-03-01T05:08:43;-1.30;99.90
10433;DHT22;5263;48.680;9.004;2023-03-01T05:11:09;-1.20;99.90
10433;DHT22;5263;48.680;9.004;2023-03-01T05:13:37;-0.50;99.90
10433;DHT22;5263;48.680;9.004;2023-03-01T05:16:04;-0.10;99.90
10433;DHT22;5263;48.680;9.004;2023-03-01T05:18:31;-0.20;99.90
10433;DHT22;5263;48.680;9.004;2023-03-01T05:21:09;-0.40;99.90
10433;DHT22;5263;48.680;9.004;2023-03-01T05:23:35;-0.60;99.90
10433;DHT22;5263;48.680;9.004;2023-03-01T05:26:02;-0.20;99.90
10433;DHT22;5263;48.680;9.004;2023-03-01T05:28:29;-0.50;99.90
10433;DHT22;5263;48.680;9.004;2023-03-01T05:30:56;-0.70;99.90
10433;DHT22;5263;48.680;9.004;2023-03-01T05:33:22;-1.00;99.90
10433;DHT22;5263;48.680;9.004;2023-03-01T05:35:49;-1.20;99.90
10433;DHT22;5263;48.680;9.004;2023-03-01T05:38:16;-1.00;99.90
10433;DHT22;5263;48.680;9.004;2023-03-01T05:40:43;-1.10;99.90
10433;DHT22;5263;48.680;9.004;2023-03-01T05:43:10;-1.20;99.90
10433;DHT22;5263;48.680;9.004;2023-03-01T05:45:37;-1.10;99.90
10433;DHT22;5263;48.680;9.004;2023-03-01T05:48:04;-1.20;99.90
10433;DHT22;5263;48.680;9.004;2023-03-01T05:50:34;-1.20;99.90
10433;DHT22;5263;48.680;9.004;2023-03-01T05:53:02;-1.00;99.90
10433;DHT22;5263;48.680;9.004;2023-03-01T05:55:29;-0.90;99.90
10433;DHT22;5263;48.680;9.004;2023-03-01T05:57:56;-0.90;99.90
10433;DHT22;5263;48.680;9.004;2023-03-01T06:00:22;-0.70;99.90
10433;DHT22;5263;48.680;9.004;2023-03-01T06:02:49;-0.80;99.90
10433;DHT22;5263;48.680;9.004;2023-03-01T06:05:15;-0.90;99.90
10433;DHT22;5263;48.680;9.004;2023-03-01T06:07:41;-0.70;99.90
10433;DHT22;5263;48.680;9.004;2023-03-01T06:10:08;-0.70;99.90
10433;DHT22;5263;48.680;9.004;2023-03-01T06:12:35;-0.60;99.90
10433;DHT22;5263;48.680;9.004;2023-03-01T06:15:02;-0.70;99.90
10433;DHT22;5263;48.680;9.004;2023-03-01T06:17:30;-0.70;99.90
10433;DHT22;5263;48.680;9.004;2023-03-01T06:19:56;-0.60;99.90
10433;DHT22;5263;48.680;9.004;2023-03-01T06:22:22;-0.40;99.90
10433;DHT22;5263;48.680;9.004;2023-03-01T06:24:47;-0.50;99.90
10433;DHT22;5263;48.680;9.004;2023-03-01T06:27:13;-0.50;99.90
10433;DHT22;5263;48.680;9.004;2023-03-01T06:29:39;-0.50;99.90
10433;DHT22;5263;48.680;9.004;2023-03-01T06:32:04;-0.50;99.90
10433;DHT22;5263;48.680;9.004;2023-03-01T06:34:30;-0.70;99.90
10433;DHT22;5263;48.680;9.004;2023-03-01T06:36:56;-0.60;99.90
10433;DHT22;5263;48.680;9.004;2023-03-01T06:39:22;-0.50;99.90
10433;DHT22;5263;48.680;9.004;2023-03-01T06:41:47;-0.60;99.90
10433;DHT22;5263;48.680;9.004;2023-03-01T06:44:13;-0.50;99.90
10433;DHT22;5263;48.680;9.004;2023-03-01T06:46:39;-0.50;99.90
10433;DHT22;5263;48.680;9.004;2023-03-01T06:49:05;-0.40;99.90
10433;DHT22;5263;48.680;9.004;2023-03-01T06:51:37;-0.30;99.90
10433;DHT22;5263;48.680;9.004;2023-03-01T06:54:04;-0.10;99.90
10433;DHT22;5263;48.680;9.004;2023-03-01T06:56:31;-0.20;99.90
10433;DHT22;5263;48.680;9.004;2023-03-01T06:58:56;0.00;99.90
10433;DHT22;5263;48.680;9.004;2023-03-01T07:01:22;0.00;99.90
10433;DHT22;5263;48.680;9.004;2023-03-01T07:03:48;-0.10;99.90
10433;DHT22;5263;48.680;9.004;2023-03-01T07:06:13;0.10;99.90
10433;DHT22;5263;48.680;9.004;2023-03-01T07:08:39;0.30;99.90
10433;DHT22;5263;48.680;9.004;2023-03-01T07:11:04;0.00;99.90
10433;DHT22;5263;48.680;9.004;2023-03-01T07:13:31;0.20;99.90
10433;DHT22;5263;48.680;9.004;2023-03-01T07:15:56;0.20;99.90
10433;DHT22;5263;48.680;9.004;2023-03-01T07:18:22;0.10;99.90
10433;DHT22;5263;48.680;9.004;2023-03-01T07:20:48;0.10;99.90
10433;DHT22;5263;48.680;9.004;2023-03-01T07:23:13;0.10;99.90
10433;DHT22;5263;48.680;9.004;2023-03-01T07:25:39;0.00;99.90
10433;DHT22;5263;48.680;9.004;2023-03-01T07:28:05;0.10;99.90
10433;DHT22;5263;48.680;9.004;2023-03-01T07:30:30;0.10;99.90
10433;DHT22;5263;48.680;9.004;2023-03-01T07:32:57;0.10;99.90
10433;DHT22;5263;48.680;9.004;2023-03-01T07:35:25;0.00;99.90
10433;DHT22;5263;48.680;9.004;2023-03-01T07:37:50;0.10;99.90
10433;DHT22;5263;48.680;9.004;2023-03-01T07:40:16;0.30;99.90
10433;DHT22;5263;48.680;9.004;2023-03-01T07:42:42;0.30;99.90
10433;DHT22;5263;48.680;9.004;2023-03-01T07:45:08;0.30;99.90
10433;DHT22;5263;48.680;9.004;2023-03-01T07:47:33;0.30;99.90
10433;DHT22;5263;48.680;9.004;2023-03-01T07:49:59;0.40;99.90
10433;DHT22;5263;48.680;9.004;2023-03-01T07:52:26;0.40;99.90
10433;DHT22;5263;48.680;9.004;2023-03-01T07:54:52;0.60;99.90
10433;DHT22;5263;48.680;9.004;2023-03-01T07:57:17;0.60;99.90
10433;DHT22;5263;48.680;9.004;2023-03-01T07:59:43;0.50;99.90
10433;DHT22;5263;48.680;9.004;2023-03-01T08:02:10;0.70;99.90
10433;DHT22;5263;48.680;9.004;2023-03-01T08:04:36;0.70;99.90
10433;DHT22;5263;48.680;9.004;2023-03-01T08:07:04;0.90;99.90
10433;DHT22;5263;48.680;9.004;2023-03-01T08:09:29;0.80;99.90
10433;DHT22;5263;48.680;9.004;2023-03-01T08:11:57;0.90;99.90
10433;DHT22;5263;48.680;9.004;2023-03-01T08:14:24;1.10;99.90
10433;DHT22;5263;48.680;9.004;2023-03-01T08:16:50;1.20;99.90
10433;DHT22;5263;48.680;9.004;2023-03-01T08:19:16;1.20;99.90
10433;DHT22;5263;48.680;9.004;2023-03-01T08:21:41;0.80;99.90
10433;DHT22;5263;48.680;9.004;2023-03-01T08:24:08;0.90;99.90
10433;DHT22;5263;48.680;9.004;2023-03-01T08:26:35;1.20;99.90
10433;DHT22;5263;48.680;9.004;2023-03-01T08:29:01;1.30;99.90
10433;DHT22;5263;48.680;9.004;2023-03-01T08:31:32;1.50;99.90
10433;DHT22;5263;48.680;9.004;2023-03-01T08:34:00;1.50;99.90
10433;DHT22;5263;48.680;9.004;2023-03-01T08:36:30;1.60;99.90
10433;DHT22;5263;48.680;9.004;2023-03-01T08:38:57;1.80;99.90
10433;DHT22;5263;48.680;9.004;2023-03-01T08:41:23;1.90;99.90
10433;DHT22;5263;48.680;9.004;2023-03-01T08:43:49;2.10;99.90
10433;DHT22;5263;48.680;9.004;2023-03-01T08:46:14;2.20;99.90
10433;DHT22;5263;48.680;9.004;2023-03-01T08:48:40;2.20;99.90
10433;DHT22;5263;48.680;9.004;2023-03-01T08:51:13;2.20;99.90
10433;DHT22;5263;48.680;9.004;2023-03-01T08:53:40;2.30;99.90
10433;DHT22;5263;48.680;9.004;2023-03-01T08:56:05;2.50;99.90
10433;DHT22;5263;48.680;9.004;2023-03-01T08:58:31;2.30;99.90
10433;DHT22;5263;48.680;9.004;2023-03-01T09:00:57;2.40;99.90
10433;DHT22;5263;48.680;9.004;2023-03-01T09:03:23;2.30;99.90
10433;DHT22;5263;48.680;9.004;2023-03-01T09:05:49;1.90;99.90
10433;DHT22;5263;48.680;9.004;2023-03-01T09:08:18;2.10;99.90
10433;DHT22;5263;48.680;9.004;2023-03-01T09:10:44;2.20;99.90
10433;DHT22;5263;48.680;9.004;2023-03-01T09:13:10;2.30;99.90
10433;DHT22;5263;48.680;9.004;2023-03-01T09:15:39;2.40;99.90
10433;DHT22;5263;48.680;9.004;2023-03-01T09:18:05;2.30;99.90
10433;DHT22;5263;48.680;9.004;2023-03-01T09:20:31;2.30;99.90
10433;DHT22;5263;48.680;9.004;2023-03-01T09:22:57;2.50;99.90
10433;DHT22;5263;48.680;9.004;2023-03-01T09:25:23;2.50;99.90
10433;DHT22;5263;48.680;9.004;2023-03-01T09:27:53;2.30;99.90
10433;DHT22;5263;48.680;9.004;2023-03-01T09:30:19;2.50;99.90
10433;DHT22;5263;48.680;9.004;2023-03-01T09:32:45;2.90;99.90
10433;DHT22;5263;48.680;9.004;2023-03-01T09:35:11;3.10;99.90
10433;DHT22;5263;48.680;9.004;2023-03-01T09:37:37;3.30;99.90
10433;DHT22;5263;48.680;9.004;2023-03-01T09:40:05;3.30;99.90
10433;DHT22;5263;48.680;9.004;2023-03-01T09:42:34;3.30;99.90
10433;DHT22;5263;48.680;9.004;2023-03-01T09:45:11;3.60;99.90
10433;DHT22;5263;48.680;9.004;2023-03-01T09:47:40;3.30;99.90
10433;DHT22;5263;48.680;9.004;2023-03-01T09:50:15;3.10;99.90
10433;DHT22;5263;48.680;9.004;2023-03-01T09:52:47;3.60;99.90
10433;DHT22;5263;48.680;9.004;2023-03-01T09:55:20;3.90;99.90
10433;DHT22;5263;48.680;9.004;2023-03-01T09:57:55;4.20;99.90
10433;DHT22;5263;48.680;9.004;2023-03-01T10:00:36;4.20;99.90
10433;DHT22;5263;48.680;9.004;2023-03-01T10:03:12;3.90;99.90
10433;DHT22;5263;48.680;9.004;2023-03-01T10:05:52;4.60;99.90
10433;DHT22;5263;48.680;9.004;2023-03-01T10:08:34;5.40;99.90
10433;DHT22;5263;48.680;9.004;2023-03-01T10:11:02;6.30;99.90
10433;DHT22;5263;48.680;9.004;2023-03-01T10:13:46;7.60;99.90
10433;DHT22;5263;48.680;9.004;2023-03-01T10:16:34;7.70;99.90
10433;DHT22;5263;48.680;9.004;2023-03-01T10:19:03;7.80;99.90
10433;DHT22;5263;48.680;9.004;2023-03-01T10:21:31;8.60;99.90
10433;DHT22;5263;48.680;9.004;2023-03-01T10:24:11;8.60;99.90
10433;DHT22;5263;48.680;9.004;2023-03-01T10:29:14;7.60;99.90
10433;DHT22;5263;48.680;9.004;2023-03-01T10:31:51;8.20;99.90
10433;DHT22;5263;48.680;9.004;2023-03-01T10:34:27;10.00;97.10
10433;DHT22;5263;48.680;9.004;2023-03-01T10:36:57;9.40;96.90
10433;DHT22;5263;48.680;9.004;2023-03-01T10:39:25;9.40;97.00
10433;DHT22;5263;48.680;9.004;2023-03-01T10:41:57;10.40;97.30
10433;DHT22;5263;48.680;9.004;2023-03-01T10:44:39;11.90;91.80
10433;DHT22;5263;48.680;9.004;2023-03-01T10:52:23;13.70;83.20
10433;DHT22;5263;48.680;9.004;2023-03-01T10:55:02;15.20;76.00
10433;DHT22;5263;48.680;9.004;2023-03-01T11:00:21;14.30;72.00
10433;DHT22;5263;48.680;9.004;2023-03-01T11:05:25;14.20;72.80
10433;DHT22;5263;48.680;9.004;2023-03-01T11:07:59;14.10;73.20
10433;DHT22;5263;48.680;9.004;2023-03-01T11:10:35;15.10;67.80
10433;DHT22;5263;48.680;9.004;2023-03-01T11:15:35;15.60;63.40
10433;DHT22;5263;48.680;9.004;2023-03-01T11:18:01;13.10;65.60
10433;DHT22;5263;48.680;9.004;2023-03-01T11:20:32;14.50;68.90
10433;DHT22;5263;48.680;9.004;2023-03-01T11:23:04;15.50;65.50
10433;DHT22;5263;48.680;9.004;2023-03-01T11:25:36;15.00;65.70
10433;DHT22;5263;48.680;9.004;2023-03-01T11:28:04;16.10;60.60
10433;DHT22;5263;48.680;9.004;2023-03-01T11:30:56;16.70;60.70
10433;DHT22;5263;48.680;9.004;2023-03-01T11:33:35;13.80;62.70
10433;DHT22;5263;48.680;9.004;2023-03-01T11:36:07;14.10;64.80
10433;DHT22;5263;48.680;9.004;2023-03-01T11:38:35;15.20;61.50
10433;DHT22;5263;48.680;9.004;2023-03-01T11:51:31;14.30;60.70
10433;DHT22;5263;48.680;9.004;2023-03-01T11:56:55;14.10;64.90
10433;DHT22;5263;48.680;9.004;2023-03-01T12:05:03;17.00;57.00
10433;DHT22;5263;48.680;9.004;2023-03-01T12:07:46;18.40;52.10
10433;DHT22;5263;48.680;9.004;2023-03-01T12:10:29;18.20;53.00
10433;DHT22;5263;48.680;9.004;2023-03-01T12:27:21;16.90;55.30
10433;DHT22;5263;48.680;9.004;2023-03-01T12:43:07;17.10;51.60
10433;DHT22;5263;48.680;9.004;2023-03-01T12:46:38;17.60;53.10
10433;DHT22;5263;48.680;9.004;2023-03-01T12:51:26;19.00;49.40
10433;DHT22;5263;48.680;9.004;2023-03-01T12:53:55;19.30;47.30
10433;DHT22;5263;48.680;9.004;2023-03-01T12:56:25;18.20;47.40
10433;DHT22;5263;48.680;9.004;2023-03-01T13:07:28;19.30;47.70
10433;DHT22;5263;48.680;9.004;2023-03-01T13:17:54;19.20;47.60
10433;DHT22;5263;48.680;9.004;2023-03-01T13:20:25;19.60;47.10
10433;DHT22;5263;48.680;9.004;2023-03-01T13:23:04;18.60;46.30
10433;DHT22;5263;48.680;9.004;2023-03-01T13:25:30;18.30;47.90
10433;DHT22;5263;48.680;9.004;2023-03-01T13:30:57;15.70;50.90
10433;DHT22;5263;48.680;9.004;2023-03-01T13:35:51;13.80;53.40
10433;DHT22;5263;48.680;9.004;2023-03-01T13:38:37;13.80;54.90
10433;DHT22;5263;48.680;9.004;2023-03-01T13:41:04;14.30;54.30
10433;DHT22;5263;48.680;9.004;2023-03-01T13:43:34;14.70;54.50
10433;DHT22;5263;48.680;9.004;2023-03-01T13:46:07;13.90;55.60
10433;DHT22;5263;48.680;9.004;2023-03-01T13:48:34;14.00;55.40
10433;DHT22;5263;48.680;9.004;2023-03-01T13:51:03;15.50;53.70
10433;DHT22;5263;48.680;9.004;2023-03-01T13:53:36;15.40;53.40
10433;DHT22;5263;48.680;9.004;2023-03-01T13:56:11;14.90;54.10
10433;DHT22;5263;48.680;9.004;2023-03-01T14:01:23;14.60;54.80
10433;DHT22;5263;48.680;9.004;2023-03-01T14:03:49;13.80;54.10
10433;DHT22;5263;48.680;9.004;2023-03-01T14:06:23;13.90;55.50
10433;DHT22;5263;48.680;9.004;2023-03-01T14:08:52;14.10;55.60
10433;DHT22;5263;48.680;9.004;2023-03-01T14:11:35;14.60;53.80
10433;DHT22;5263;48.680;9.004;2023-03-01T14:20:22;13.00;56.60
10433;DHT22;5263;48.680;9.004;2023-03-01T14:22:50;13.40;57.60
10433;DHT22;5263;48.680;9.004;2023-03-01T14:25:33;12.60;58.10
10433;DHT22;5263;48.680;9.004;2023-03-01T14:30:48;12.20;59.40
10433;DHT22;5263;48.680;9.004;2023-03-01T14:33:34;12.10;59.20
10433;DHT22;5263;48.680;9.004;2023-03-01T14:36:07;11.60;60.60
10433;DHT22;5263;48.680;9.004;2023-03-01T14:38:44;11.40;61.80
10433;DHT22;5263;48.680;9.004;2023-03-01T14:41:22;11.10;64.60
10433;DHT22;5263;48.680;9.004;2023-03-01T14:44:15;11.20;63.50
10433;DHT22;5263;48.680;9.004;2023-03-01T14:46:44;10.30;64.00
10433;DHT22;5263;48.680;9.004;2023-03-01T14:49:20;10.70;67.30
10433;DHT22;5263;48.680;9.004;2023-03-01T14:51:51;11.70;63.90
10433;DHT22;5263;48.680;9.004;2023-03-01T14:54:27;11.30;64.50
10433;DHT22;5263;48.680;9.004;2023-03-01T14:56:57;10.70;63.90
10433;DHT22;5263;48.680;9.004;2023-03-01T14:59:24;11.10;63.30
10433;DHT22;5263;48.680;9.004;2023-03-01T15:01:51;11.00;64.10
10433;DHT22;5263;48.680;9.004;2023-03-01T15:04:19;11.20;65.00
10433;DHT22;5263;48.680;9.004;2023-03-01T15:06:47;10.60;64.40
10433;DHT22;5263;48.680;9.004;2023-03-01T15:09:15;10.70;64.90
10433;DHT22;5263;48.680;9.004;2023-03-01T15:11:42;10.80;65.40
10433;DHT22;5263;48.680;9.004;2023-03-01T15:14:48;10.50;65.60
10433;DHT22;5263;48.680;9.004;2023-03-01T15:17:35;10.10;67.60
10433;DHT22;5263;48.680;9.004;2023-03-01T15:20:02;10.50;67.30
10433;DHT22;5263;48.680;9.004;2023-03-01T15:22:29;10.50;65.90
10433;DHT22;5263;48.680;9.004;2023-03-01T15:24:55;11.00;65.60
10433;DHT22;5263;48.680;9.004;2023-03-01T15:27:23;10.60;66.00
10433;DHT22;5263;48.680;9.004;2023-03-01T15:32:35;10.20;67.20
10433;DHT22;5263;48.680;9.004;2023-03-01T15:37:59;10.10;67.60
10433;DHT22;5263;48.680;9.004;2023-03-01T15:40:30;9.30;73.40
10433;DHT22;5263;48.680;9.004;2023-03-01T15:43:04;9.60;71.80
10433;DHT22;5263;48.680;9.004;2023-03-01T15:45:30;9.30;71.20
10433;DHT22;5263;48.680;9.004;2023-03-01T15:48:04;9.00;73.40
10433;DHT22;5263;48.680;9.004;2023-03-01T15:50:33;9.20;73.00
10433;DHT22;5263;48.680;9.004;2023-03-01T15:53:03;8.40;74.40
10433;DHT22;5263;48.680;9.004;2023-03-01T15:55:32;7.80;76.50
10433;DHT22;5263;48.680;9.004;2023-03-01T16:00:32;7.50;80.30
10433;DHT22;5263;48.680;9.004;2023-03-01T16:02:58;7.40;80.70
10433;DHT22;5263;48.680;9.004;2023-03-01T16:07:52;7.20;81.00
10433;DHT22;5263;48.680;9.004;2023-03-01T16:10:18;6.80;82.20
10433;DHT22;5263;48.680;9.004;2023-03-01T16:12:44;6.70;84.80
10433;DHT22;5263;48.680;9.004;2023-03-01T16:15:17;6.40;85.50
10433;DHT22;5263;48.680;9.004;2023-03-01T16:17:44;6.20;87.50
10433;DHT22;5263;48.680;9.004;2023-03-01T16:20:10;6.40;87.20
10433;DHT22;5263;48.680;9.004;2023-03-01T16:22:35;6.20;87.20
10433;DHT22;5263;48.680;9.004;2023-03-01T16:25:01;6.20;89.20
10433;DHT22;5263;48.680;9.004;2023-03-01T16:27:27;6.00;89.40
10433;DHT22;5263;48.680;9.004;2023-03-01T16:29:53;5.80;90.50
10433;DHT22;5263;48.680;9.004;2023-03-01T16:32:19;5.70;91.10
10433;DHT22;5263;48.680;9.004;2023-03-01T16:34:44;5.80;91.00
10433;DHT22;5263;48.680;9.004;2023-03-01T16:37:10;5.70;91.10
10433;DHT22;5263;48.680;9.004;2023-03-01T16:39:38;5.50;91.40
10433;DHT22;5263;48.680;9.004;2023-03-01T16:42:03;5.40;92.00
10433;DHT22;5263;48.680;9.004;2023-03-01T16:44:29;5.50;92.30
10433;DHT22;5263;48.680;9.004;2023-03-01T16:46:55;5.40;92.60
10433;DHT22;5263;48.680;9.004;2023-03-01T16:49:21;5.40;92.90
10433;DHT22;5263;48.680;9.004;2023-03-01T16:51:47;5.10;93.20
10433;DHT22;5263;48.680;9.004;2023-03-01T16:54:12;5.10;93.60
10433;DHT22;5263;48.680;9.004;2023-03-01T16:56:38;5.10;94.00
10433;DHT22;5263;48.680;9.004;2023-03-01T16:59:05;5.10;94.30
10433;DHT22;5263;48.680;9.004;2023-03-01T17:01:31;4.90;94.30
10433;DHT22;5263;48.680;9.004;2023-03-01T17:04:03;4.80;95.10
10433;DHT22;5263;48.680;9.004;2023-03-01T17:06:29;4.80;95.50
10433;DHT22;5263;48.680;9.004;2023-03-01T17:08:56;4.70;95.60
10433;DHT22;5263;48.680;9.004;2023-03-01T17:11:22;4.70;96.20
10433;DHT22;5263;48.680;9.004;2023-03-01T17:13:47;4.60;96.40
10433;DHT22;5263;48.680;9.004;2023-03-01T17:16:15;4.40;97.00
10433;DHT22;5263;48.680;9.004;2023-03-01T17:18:42;4.30;97.60
10433;DHT22;5263;48.680;9.004;2023-03-01T17:21:08;4.10;98.00
10433;DHT22;5263;48.680;9.004;2023-03-01T17:23:36;4.00;98.70
10433;DHT22;5263;48.680;9.004;2023-03-01T17:26:04;3.90;99.10
10433;DHT22;5263;48.680;9.004;2023-03-01T17:28:32;3.90;99.60
10433;DHT22;5263;48.680;9.004;2023-03-01T17:30:59;3.80;99.90
10433;DHT22;5263;48.680;9.004;2023-03-01T17:33:26;3.80;99.90
10433;DHT22;5263;48.680;9.004;2023-03-01T17:35:51;3.80;99.90
10433;DHT22;5263;48.680;9.004;2023-03-01T17:38:18;3.60;99.90
10433;DHT22;5263;48.680;9.004;2023-03-01T17:40:44;3.60;99.90
10433;DHT22;5263;48.680;9.004;2023-03-01T17:43:11;3.50;99.90
10433;DHT22;5263;48.680;9.004;2023-03-01T17:45:38;3.50;99.90
10433;DHT22;5263;48.680;9.004;2023-03-01T17:48:05;3.50;99.90
10433;DHT22;5263;48.680;9.004;2023-03-01T17:50:31;3.40;99.90
10433;DHT22;5263;48.680;9.004;2023-03-01T17:52:57;3.50;99.90
10433;DHT22;5263;48.680;9.004;2023-03-01T17:55:23;3.50;99.90
10433;DHT22;5263;48.680;9.004;2023-03-01T17:57:48;3.60;99.90